Time;durP1;ratioP1;P1;durP2;ratioP2;P2;SDS_P1;SDS_P2;PMS_P1;PMS_P2;Temp;Humidity;BMP_temperature;BMP_pressure;BME280_temperature;BME280_humidity;BME280_pressure;Samples;Min_cycle;Max_cycle;Signal;HPM_P1;HPM_P2
2022/06/17 04:22:38;;;;;;;5.50;3.53;;;;;;;14.23;76.83;100978.13;5113847;27;20327;-82
2022/06/17 04:25:28;;;;;;;6.10;3.70;;;;;;;14.11;77.26;100975.03;5098317;28;20089;-83
2022/06/17 04:27:56;;;;;;;3.72;3.33;;;;;;;14.19;77.41;100984.84;5116863;28;20032;-81
2022/06/17 04:30:30;;;;;;;7.65;3.90;;;;;;;14.21;77.17;100982.81;5110736;22;20541;-81
2022/06/17 04:33:02;;;;;;;6.05;3.53;;;;;;;14.26;76.87;100976.91;5052403;28;20095;-79
2022/06/17 04:35:29;;;;;;;7.03;3.55;;;;;;;14.25;76.87;100978.78;5073264;28;20053;-79
2022/06/17 04:37:55;;;;;;;3.70;3.33;;;;;;;14.26;76.95;100979.59;5075747;28;20032;-77
2022/06/17 04:40:54;;;;;;;5.45;3.72;;;;;;;14.27;76.89;100991.97;5074629;28;20171;-80
2022/06/17 04:43:47;;;;;;;5.68;4.05;;;;;;;14.36;76.60;100988.25;5079046;28;20079;-79
2022/06/17 04:46:18;;;;;;;7.72;4.05;;;;;;;14.48;75.92;100996.72;5076900;28;20508;-79
2022/06/17 04:48:44;;;;;;;6.28;3.90;;;;;;;14.57;75.73;100998.31;5077979;28;20032;-79
2022/06/17 04:51:11;;;;;;;6.45;3.17;;;;;;;14.63;76.09;100992.22;5079995;28;20021;-80
2022/06/17 04:53:42;;;;;;;4.75;3.67;;;;;;;14.70;75.77;100990.47;5078351;28;20036;-79
2022/06/17 04:56:49;;;;;;;4.95;3.42;;;;;;;14.81;75.03;100994.59;5080754;28;20124;-80
2022/06/17 04:59:40;;;;;;;7.28;3.97;;;;;;;14.86;75.73;101001.03;5080504;28;20049;-80
2022/06/17 05:02:13;;;;;;;10.75;3.88;;;;;;;14.91;75.23;100998.66;5078567;28;20047;-80
2022/06/17 05:04:46;;;;;;;5.30;3.40;;;;;;;15.04;73.81;101011.44;5082235;28;20029;-80
2022/06/17 05:07:15;;;;;;;6.82;3.47;;;;;;;15.09;73.35;101014.41;5075035;28;20161;-79
2022/06/17 05:09:49;;;;;;;8.13;3.70;;;;;;;15.26;72.28;101020.44;5068038;28;20131;-76
2022/06/17 05:12:26;;;;;;;6.53;3.33;;;;;;;15.42;70.91;101009.50;5070244;28;20056;-79
2022/06/17 05:15:06;;;;;;;4.93;3.00;;;;;;;15.57;70.83;101012.16;5070134;28;20041;-78
2022/06/17 05:17:34;;;;;;;4.28;3.33;;;;;;;15.71;69.21;101013.16;5068290;28;20226;-77
2022/06/17 05:19:59;;;;;;;4.97;3.45;;;;;;;15.77;69.62;101001.69;5068306;28;20086;-77
2022/06/17 05:22:37;;;;;;;6.30;3.40;;;;;;;15.91;68.71;101014.25;5066162;28;20029;-78
2022/06/17 05:25:07;;;;;;;5.05;3.08;;;;;;;16.00;68.88;101015.81;5066817;28;20519;-77
2022/06/17 05:27:33;;;;;;;7.47;3.55;;;;;;;16.08;68.51;101022.06;5066763;28;20033;-77
2022/06/17 05:29:58;;;;;;;4.43;3.30;;;;;;;16.16;68.22;101014.72;5066808;28;20097;-78
2022/06/17 05:32:30;;;;;;;3.72;2.80;;;;;;;16.27;67.33;101016.06;5061356;28;20524;-78
2022/06/17 05:34:56;;;;;;;4.23;3.00;;;;;;;16.37;67.24;101016.59;5055212;28;20037;-78
2022/06/17 05:37:21;;;;;;;4.57;2.97;;;;;;;16.47;66.41;101014.41;5054024;28;20085;-78
2022/06/17 05:39:52;;;;;;;5.93;3.30;;;;;;;16.64;66.38;101027.59;5053804;28;20059;-79
2022/06/17 05:42:17;;;;;;;5.05;2.80;;;;;;;16.69;65.79;101030.50;5053412;28;20033;-78
2022/06/17 05:44:43;;;;;;;6.30;3.05;;;;;;;16.81;65.78;101026.28;5053555;28;20124;-78
2022/06/17 05:47:31;;;;;;;;;;;;;;;16.92;65.20;101038.41;5054630;28;20048;-77
2022/06/17 05:50:11;;;;;;;6.07;3.13;;;;;;;17.06;64.60;101037.47;5053475;28;19912;-77
2022/06/17 05:52:55;;;;;;;4.38;2.75;;;;;;;17.19;64.53;101036.72;5049994;28;20067;-77
2022/06/17 05:55:39;;;;;;;6.88;2.90;;;;;;;17.36;63.91;101030.00;5035370;28;20086;-77
2022/06/17 05:58:06;;;;;;;6.53;2.90;;;;;;;17.66;61.85;101037.78;5050356;28;20037;-76
2022/06/17 06:00:34;;;;;;;7.07;3.38;;;;;;;17.92;60.74;101027.16;5033601;28;20593;-77
2022/06/17 06:03:03;;;;;;;4.68;3.25;;;;;;;18.14;61.16;101039.47;5033476;28;20379;-77
2022/06/17 06:05:34;;;;;;;6.15;3.17;;;;;;;18.09;58.36;101038.41;5051652;28;20060;-77
2022/06/17 06:08:02;;;;;;;3.97;2.78;;;;;;;18.14;59.50;101035.94;5035083;28;20379;-77
2022/06/17 06:10:31;;;;;;;8.65;3.70;;;;;;;18.18;58.56;101029.91;5033300;28;20331;-75
2022/06/17 06:12:57;;;;;;;4.78;2.75;;;;;;;18.16;58.25;101026.59;5031205;28;20072;-76
2022/06/17 06:15:39;;;;;;;5.28;2.92;;;;;;;18.25;59.18;101027.22;5016062;28;20383;-75
2022/06/17 06:18:28;;;;;;;3.90;2.70;;;;;;;18.30;59.78;101021.22;5031462;28;20164;-75
2022/06/17 06:20:54;;;;;;;4.72;2.65;;;;;;;18.41;59.33;101026.03;5031809;28;20056;-75
2022/06/17 06:23:21;;;;;;;6.15;2.90;;;;;;;18.48;57.79;101026.84;5047435;28;20042;-75
2022/06/17 06:25:47;;;;;;;3.67;2.30;;;;;;;18.49;57.93;101022.28;5048476;28;20049;-76
2022/06/17 06:28:17;;;;;;;4.45;2.33;;;;;;;18.60;57.68;101025.22;5035983;28;20037;-76
2022/06/17 06:30:42;;;;;;;3.83;2.22;;;;;;;18.65;57.40;101027.28;5049297;28;20072;-76
2022/06/17 06:33:09;;;;;;;5.13;2.60;;;;;;;18.66;56.44;101027.13;5033397;28;20171;-76
2022/06/17 06:35:38;;;;;;;3.55;2.50;;;;;;;18.70;56.83;101032.91;5017798;28;20191;-75
2022/06/17 06:38:06;;;;;;;4.70;2.67;;;;;;;18.77;56.28;101032.91;5052149;28;20029;-76
2022/06/17 06:40:32;;;;;;;;;;;;;;;18.81;57.20;101021.50;5051062;28;20124;-76
2022/06/17 06:42:58;;;;;;;4.97;2.40;;;;;;;18.89;56.32;101013.19;5050390;28;20388;-77
2022/06/17 06:45:49;;;;;;;6.93;3.70;;;;;;;19.00;56.38;101008.19;5031799;28;20139;-76
2022/06/17 06:48:21;;;;;;;4.78;2.30;;;;;;;19.06;56.24;101012.75;5051042;28;20037;-75
2022/06/17 06:50:48;;;;;;;2.95;2.05;;;;;;;19.18;56.87;101025.41;5052263;28;20033;-75
2022/06/17 06:53:14;;;;;;;3.67;2.63;;;;;;;19.27;55.90;101027.88;5033679;28;20056;-75
2022/06/17 06:55:40;;;;;;;2.97;2.25;;;;;;;19.33;54.75;101029.72;5050495;28;20036;-76
2022/06/17 06:58:13;;;;;;;5.18;2.42;;;;;;;19.44;55.81;101031.78;5050902;28;20098;-76
2022/06/17 07:00:48;;;;;;;4.75;2.15;;;;;;;19.55;54.81;101038.38;5050810;28;20108;-74
2022/06/17 07:03:15;;;;;;;4.38;2.00;;;;;;;19.57;54.03;101029.03;5050206;28;20470;-74
2022/06/17 07:05:43;;;;;;;6.55;2.25;;;;;;;19.63;54.56;101014.69;5051966;28;20410;-74
2022/06/17 07:08:12;;;;;;;4.70;2.13;;;;;;;19.72;53.72;101021.50;5050882;28;20051;-74
2022/06/17 07:10:38;;;;;;;3.92;2.25;;;;;;;19.85;52.98;101028.72;5051975;28;20118;-75
2022/06/17 07:13:05;;;;;;;4.00;2.03;;;;;;;19.98;53.29;101025.13;5051225;28;20079;-75
2022/06/17 07:15:31;;;;;;;;;;;;;;;20.05;53.04;101025.94;5050852;28;20485;-75
2022/06/17 07:18:07;;;;;;;2.45;2.10;;;;;;;20.12;52.39;101023.19;5052023;28;19913;-76
2022/06/17 07:20:38;;;;;;;4.43;2.15;;;;;;;20.19;52.40;101022.09;5051842;28;20043;-75
2022/06/17 07:23:05;;;;;;;3.35;1.95;;;;;;;20.25;52.14;101031.22;5051519;28;20033;-75
2022/06/17 07:25:30;;;;;;;3.05;2.42;;;;;;;20.27;52.58;101032.63;5051385;28;20047;-76
2022/06/17 07:27:56;;;;;;;5.88;2.75;;;;;;;20.43;52.18;101030.47;5051613;28;20119;-76
2022/06/17 07:30:22;;;;;;;3.90;2.13;;;;;;;20.54;52.38;101027.09;5051198;28;20032;-76
2022/06/17 07:32:48;;;;;;;3.38;2.28;;;;;;;20.66;51.70;101033.44;5050732;28;20098;-75
2022/06/17 07:35:15;;;;;;;6.30;2.60;;;;;;;20.73;52.48;101025.25;5033228;28;20032;-75
2022/06/17 07:40:25;;;;;;;3.10;2.00;;;;;;;20.93;50.41;101036.78;5051275;28;20083;-76
2022/06/17 07:42:50;;;;;;;5.10;2.00;;;;;;;21.14;51.53;101049.88;5050504;28;20021;-76
2022/06/17 07:45:19;;;;;;;5.47;2.47;;;;;;;21.29;51.17;101040.59;5051229;28;20520;-76
2022/06/17 07:47:48;;;;;;;3.55;2.22;;;;;;;21.41;50.16;101038.81;5050097;28;20045;-76
2022/06/17 07:50:19;;;;;;;3.85;2.22;;;;;;;21.30;49.28;101032.25;5051182;28;20044;-77
2022/06/17 07:52:46;;;;;;;4.25;2.50;;;;;;;21.52;49.95;101031.81;5050962;28;20068;-76
2022/06/17 07:55:11;;;;;;;3.75;2.15;;;;;;;21.62;48.94;101013.94;5047825;28;20182;-77
2022/06/17 07:57:37;;;;;;;6.32;2.83;;;;;;;21.77;48.00;101020.84;5048853;28;20040;-76
2022/06/17 08:00:09;;;;;;;3.45;2.30;;;;;;;21.80;48.12;101015.81;5049825;28;20079;-76
2022/06/17 08:02:37;;;;;;;3.88;2.35;;;;;;;22.00;48.39;101022.84;5050464;28;20510;-75
2022/06/17 08:05:03;;;;;;;3.50;2.20;;;;;;;22.19;48.38;101025.31;5033939;28;20037;-76
2022/06/17 08:07:28;;;;;;;4.28;2.30;;;;;;;22.27;48.03;101018.72;5050781;28;20049;-76
2022/06/17 08:09:54;;;;;;;5.35;2.53;;;;;;;22.26;47.32;101022.50;5051487;28;20028;-76
2022/06/17 08:12:19;;;;;;;5.43;2.30;;;;;;;22.45;47.81;101012.41;5051641;28;20068;-77
2022/06/17 08:14:46;;;;;;;8.40;4.65;;;;;;;22.61;47.19;101008.16;5051664;28;20048;-77
2022/06/17 08:17:14;;;;;;;7.78;2.83;;;;;;;22.77;47.39;101004.78;5051257;28;20040;-76
2022/06/17 08:19:45;;;;;;;2.78;1.98;;;;;;;22.97;48.32;101007.16;5033420;28;20477;-77
2022/06/17 08:22:11;;;;;;;5.25;2.10;;;;;;;23.00;46.56;101010.22;5050925;28;20045;-77
2022/06/17 08:24:37;;;;;;;4.10;2.55;;;;;;;23.24;46.29;101007.50;5050711;28;20028;-78
2022/06/17 08:27:03;;;;;;;5.88;2.30;;;;;;;23.31;45.31;101008.19;5055103;28;20070;-76
2022/06/17 08:29:29;;;;;;;2.83;2.17;;;;;;;23.58;45.34;101010.38;5052596;28;20045;-76
2022/06/17 08:32:44;;;;;;;3.67;2.15;;;;;;;23.26;44.65;101008.91;5050909;28;20076;-77
2022/06/17 08:34:41;;;;;;;4.18;2.80;;;;;;;23.51;45.05;101005.91;5049673;28;20401;-77
2022/06/17 08:37:06;;;;;;;3.58;2.28;;;;;;;23.71;45.42;101010.97;5051052;28;20037;-77
2022/06/17 08:39:33;;;;;;;3.50;2.50;;;;;;;23.69;43.61;101006.84;5053104;28;20051;-78
2022/06/17 08:42:38;;;;;;;4.70;2.60;;;;;;;24.09;42.83;101013.03;5051367;28;20029;-78
2022/06/17 08:45:36;;;;;;;4.25;2.60;;;;;;;24.14;42.57;101006.88;5051896;28;20393;-78
2022/06/17 08:48:23;;;;;;;3.53;2.20;;;;;;;24.26;42.80;101007.66;5053242;28;20061;-78
2022/06/17 08:51:12;;;;;;;4.43;1.95;;;;;;;24.34;41.91;101015.44;5052978;28;20044;-79
2022/06/17 08:53:51;;;;;;;3.80;2.03;;;;;;;24.52;41.44;101014.38;5051428;28;20048;-78
2022/06/17 08:56:51;;;;;;;2.88;2.30;;;;;;;24.81;41.29;101003.38;5035377;28;20029;-79
2022/06/17 08:59:42;;;;;;;2.92;2.42;;;;;;;24.85;40.70;100994.47;5054719;28;20033;-77
2022/06/17 09:02:49;;;;;;;2.80;2.28;;;;;;;24.97;40.71;100993.53;5034597;28;20469;-78
2022/06/17 09:05:17;;;;;;;7.90;1.90;;;;;;;25.29;40.49;100991.81;5052208;28;20045;-77
2022/06/17 09:07:57;;;;;;;3.70;1.83;;;;;;;24.99;38.44;100997.66;5052972;28;20362;-78
2022/06/17 09:10:33;;;;;;;3.63;2.05;;;;;;;25.56;38.14;100996.53;5055337;28;20048;-78
2022/06/17 09:13:28;;;;;;;6.35;2.00;;;;;;;25.68;35.74;101003.50;5056465;28;20048;-79
2022/06/17 09:16:37;;;;;;;4.03;1.77;;;;;;;25.77;36.75;101005.81;5056983;28;20044;-78
2022/06/17 09:19:03;;;;;;;4.78;2.00;;;;;;;25.87;36.88;100997.72;5039806;28;20040;-78
2022/06/17 09:21:35;;;;;;;4.35;2.17;;;;;;;26.16;36.45;100995.59;5054491;28;20021;-78
2022/06/17 09:24:12;;;;;;;2.83;2.05;;;;;;;25.97;35.58;101003.31;5056150;28;20519;-78
2022/06/17 09:26:54;;;;;;;5.45;2.38;;;;;;;26.13;35.68;101004.28;5054228;28;20029;-77
2022/06/17 09:29:43;;;;;;;3.50;2.03;;;;;;;26.33;36.97;100993.53;5055138;28;20033;-77
2022/06/17 09:32:20;;;;;;;3.88;2.20;;;;;;;26.54;36.09;100985.53;5046893;28;20045;-77
2022/06/17 09:35:05;;;;;;;5.07;1.88;;;;;;;26.74;35.68;100994.72;5056458;28;20095;-78
2022/06/17 09:37:36;;;;;;;2.53;1.92;;;;;;;26.74;36.22;100992.00;5057993;28;20130;-78
2022/06/17 09:40:08;;;;;;;2.55;1.83;;;;;;;26.94;39.40;100995.94;5060983;28;20116;-77
2022/06/17 09:42:42;;;;;;;4.00;1.88;;;;;;;27.13;35.73;100994.47;5057360;28;20746;-77
2022/06/17 09:45:38;;;;;;;6.03;2.08;;;;;;;27.00;35.04;100986.69;5059315;28;20064;-78
2022/06/17 09:48:11;;;;;;;3.53;2.47;;;;;;;27.28;34.71;100986.31;5059368;28;20032;-77
2022/06/17 09:51:00;;;;;;;3.38;1.92;;;;;;;27.54;35.56;100991.91;5062175;28;20037;-77
2022/06/17 09:53:47;;;;;;;5.07;2.22;;;;;;;27.41;34.02;100987.75;5027134;28;20160;-78
2022/06/17 09:56:22;;;;;;;2.65;1.73;;;;;;;27.55;33.73;100988.88;5060025;28;20036;-77
2022/06/17 09:59:12;;;;;;;2.30;1.70;;;;;;;27.61;34.04;100981.53;5060164;28;20063;-77
2022/06/17 10:01:40;;;;;;;4.85;2.03;;;;;;;27.90;33.21;100990.09;5058688;28;20118;-77
2022/06/17 10:04:09;;;;;;;2.92;1.92;;;;;;;28.22;33.46;100984.41;5059159;28;20037;-78
2022/06/17 10:06:43;;;;;;;4.07;2.10;;;;;;;28.43;33.10;100984.44;5064598;28;20033;-78
2022/06/17 10:09:25;;;;;;;4.95;1.90;;;;;;;28.82;33.15;100979.19;5058139;28;20098;-78
2022/06/17 10:12:22;;;;;;;4.00;1.65;;;;;;;28.77;31.24;100991.00;5053861;28;20064;-76
2022/06/17 10:15:27;;;;;;;2.60;1.80;;;;;;;28.85;32.28;100979.47;5050364;28;20102;-77
2022/06/17 10:18:31;;;;;;;3.42;1.50;;;;;;;28.79;31.51;100987.97;5053557;28;20040;-77
2022/06/17 10:21:15;;;;;;;1.98;1.52;;;;;;;29.04;30.06;100984.38;5053217;28;20104;-76
2022/06/17 10:24:29;;;;;;;2.72;1.60;;;;;;;29.42;30.66;100978.22;5053184;28;20070;-77
2022/06/17 10:27:10;;;;;;;5.03;1.88;;;;;;;29.75;31.23;100975.06;5052531;28;20190;-76
2022/06/17 10:30:04;;;;;;;2.45;1.88;;;;;;;29.90;30.35;100978.53;5053118;28;20048;-77
2022/06/17 10:32:33;;;;;;;4.00;2.40;;;;;;;30.22;30.56;100978.06;5051961;28;20443;-76
2022/06/17 10:35:02;;;;;;;2.85;1.88;;;;;;;30.70;29.71;100977.38;5053030;28;20116;-76
2022/06/17 10:37:30;;;;;;;3.00;1.80;;;;;;;30.51;29.76;100975.31;5052930;28;20037;-76
2022/06/17 10:39:57;;;;;;;3.53;2.30;;;;;;;30.70;29.96;100974.63;5052878;28;20090;-78
2022/06/17 10:42:24;;;;;;;3.45;2.40;;;;;;;30.97;30.17;100965.81;5052639;28;20119;-77
2022/06/17 10:44:55;;;;;;;4.10;2.55;;;;;;;30.96;28.41;100961.44;5053117;28;20162;-78
2022/06/17 10:47:47;;;;;;;2.47;2.00;;;;;;;31.14;28.63;100957.91;5053299;28;20194;-77
2022/06/17 10:50:17;;;;;;;3.67;2.13;;;;;;;31.46;28.62;100965.53;5052562;28;20444;-77
2022/06/17 10:52:48;;;;;;;2.00;1.60;;;;;;;31.68;27.60;100967.69;5052115;28;20033;-76
2022/06/17 10:55:23;;;;;;;1.73;1.52;;;;;;;31.59;28.10;100975.00;5053154;28;20063;-76
2022/06/17 10:58:07;;;;;;;2.47;1.73;;;;;;;31.67;27.33;100971.56;5053641;28;20055;-77
2022/06/17 11:00:34;;;;;;;3.20;2.38;;;;;;;31.48;27.09;100978.97;5054524;28;20028;-76
2022/06/17 11:03:25;;;;;;;3.35;1.90;;;;;;;31.91;27.04;100968.78;5052989;28;20041;-77
2022/06/17 11:06:13;;;;;;;2.53;1.75;;;;;;;31.85;26.72;100967.22;5053507;28;20033;-77
2022/06/17 11:08:53;;;;;;;1.45;1.35;;;;;;;31.85;27.33;100965.28;5053494;28;20413;-77
2022/06/17 11:14:21;;;;;;;2.53;1.48;;;;;;;31.79;26.06;100965.66;5051902;28;20045;-77
2022/06/17 11:16:47;;;;;;;2.35;1.63;;;;;;;32.46;24.43;100966.25;5053302;28;20490;-76
2022/06/17 11:19:17;;;;;;;3.87;1.83;;;;;;;32.62;24.50;100964.88;5053054;28;20041;-76
2022/06/17 11:22:16;;;;;;;1.75;1.17;;;;;;;32.74;24.18;100958.84;5052471;28;20033;-78
2022/06/17 11:24:47;;;;;;;2.30;1.17;;;;;;;32.91;24.02;100964.59;5053086;28;20051;-78
2022/06/17 11:27:34;;;;;;;2.72;1.20;;;;;;;32.88;22.85;100968.00;5052016;28;20049;-79
2022/06/17 11:30:34;;;;;;;5.45;1.70;;;;;;;32.08;23.79;100951.69;5051068;28;20375;-77
2022/06/17 11:33:01;;;;;;;3.10;1.48;;;;;;;32.86;22.89;100942.63;5050692;28;20199;-77
2022/06/17 11:35:26;;;;;;;3.80;1.55;;;;;;;33.12;22.48;100936.59;5052241;28;20068;-78
2022/06/17 11:37:54;;;;;;;1.50;1.13;;;;;;;33.54;23.35;100927.16;5052498;28;20071;-78
2022/06/17 11:40:26;;;;;;;2.47;1.20;;;;;;;33.71;22.46;100919.06;5051988;28;20045;-77
2022/06/17 11:42:53;;;;;;;1.70;1.27;;;;;;;33.64;21.93;100917.81;5053031;28;20112;-78
2022/06/17 11:45:28;;;;;;;1.90;1.13;;;;;;;33.69;21.42;100917.72;5053149;28;20508;-78
2022/06/17 11:48:19;;;;;;;1.30;1.20;;;;;;;34.09;22.36;100915.09;5051412;28;20387;-78
2022/06/17 11:51:07;;;;;;;2.35;1.50;;;;;;;33.84;21.42;100911.00;5051462;28;20044;-78
2022/06/17 11:54:01;;;;;;;1.75;1.30;;;;;;;33.36;22.30;100900.50;5052009;28;20099;-77
2022/06/17 11:56:28;;;;;;;1.20;1.10;;;;;;;33.59;21.75;100902.22;5051647;28;20071;-77
2022/06/17 11:59:10;;;;;;;1.73;1.27;;;;;;;34.14;22.43;100896.44;5051773;28;20017;-76
2022/06/17 12:01:36;;;;;;;2.55;1.20;;;;;;;33.82;21.71;100893.94;5051579;28;20079;-78
2022/06/17 12:04:01;;;;;;;1.13;1.03;;;;;;;34.13;22.18;100897.59;5037556;28;20037;-77
2022/06/17 12:06:43;;;;;;;1.80;1.20;;;;;;;34.26;21.93;100893.94;5057002;28;20047;-77
2022/06/17 12:09:31;;;;;;;1.92;1.10;;;;;;;34.34;21.39;100892.34;5056621;28;20037;-78
2022/06/17 12:12:01;;;;;;;2.08;1.08;;;;;;;34.63;21.45;100891.88;5039000;28;20037;-77
2022/06/17 12:14:35;;;;;;;1.70;0.80;;;;;;;34.59;19.97;100882.56;5054180;28;20045;-77
2022/06/17 12:17:00;;;;;;;2.30;1.17;;;;;;;33.61;20.57;100888.91;5053020;28;20490;-77
2022/06/17 12:19:26;;;;;;;1.47;1.10;;;;;;;34.51;20.23;100886.94;5020775;28;20094;-80
2022/06/17 12:22:24;;;;;;;2.97;1.07;;;;;;;33.35;20.52;100874.84;5055282;28;20043;-81
2022/06/17 12:25:02;;;;;;;3.25;1.25;;;;;;;33.28;21.10;100874.44;5059704;28;20060;-82
2022/06/17 12:27:36;;;;;;;2.42;1.13;;;;;;;34.20;20.72;100878.59;5054985;28;20080;-81
2022/06/17 12:30:21;;;;;;;1.92;1.20;;;;;;;34.35;20.38;100868.28;5053701;28;20033;-82
2022/06/17 12:32:52;;;;;;;1.42;1.00;;;;;;;33.35;20.72;100868.50;5053867;28;20033;-82
2022/06/17 12:35:48;;;;;;;2.20;1.20;;;;;;;34.31;20.73;100867.28;5054848;28;20036;-83
2022/06/17 12:38:31;;;;;;;1.65;0.88;;;;;;;35.21;20.87;100865.00;5055912;28;20397;-82
2022/06/17 12:41:34;;;;;;;3.17;1.33;;;;;;;35.00;20.45;100859.28;5053707;28;20430;-85
2022/06/17 12:44:11;;;;;;;1.38;1.08;;;;;;;35.46;18.94;100861.47;5058315;28;20114;-83
2022/06/17 12:46:45;;;;;;;1.05;1.00;;;;;;;35.07;19.32;100859.63;5056811;28;20040;-82
2022/06/17 12:55:45;;;;;;;2.53;1.00;;;;;;;35.83;20.09;100853.63;5058392;28;20039;-83
2022/06/17 12:58:29;;;;;;;3.63;1.45;;;;;;;35.67;19.90;100845.03;5059255;28;20060;-82
2022/06/17 13:01:12;;;;;;;3.83;1.30;;;;;;;35.73;19.71;100849.22;5058577;28;20021;-83
2022/06/17 13:04:10;;;;;;;1.98;1.25;;;;;;;35.28;19.48;100844.03;5037832;28;20521;-80
2022/06/17 13:07:00;;;;;;;2.15;0.90;;;;;;;35.99;19.45;100842.84;5058403;28;20041;-82
2022/06/17 13:09:47;;;;;;;2.45;1.00;;;;;;;35.38;20.18;100848.41;5055963;28;20041;-82
2022/06/17 13:12:17;;;;;;;1.15;1.05;;;;;;;35.18;20.40;100846.28;5057694;28;20024;-84
2022/06/17 13:15:00;;;;;;;3.60;1.40;;;;;;;34.22;21.56;100834.06;5059149;28;20482;-82
2022/06/17 13:17:38;;;;;;;3.00;1.13;;;;;;;33.81;21.99;100837.88;5057467;28;20058;-81
2022/06/17 13:20:13;;;;;;;1.90;1.10;;;;;;;34.29;21.55;100834.41;5056358;28;20029;-83
2022/06/17 13:22:55;;;;;;;2.58;1.80;;;;;;;33.64;20.84;100830.25;5057553;28;20098;-81
2022/06/17 13:25:36;;;;;;;2.05;1.50;;;;;;;33.32;21.82;100835.97;5062206;28;20032;-80
2022/06/17 13:28:24;;;;;;;1.38;1.20;;;;;;;32.50;22.04;100834.13;5062215;28;20049;-81
2022/06/17 13:30:56;;;;;;;4.68;2.83;;;;;;;32.64;22.83;100824.72;5060989;28;20060;-80
2022/06/17 13:33:24;;;;;;;1.67;1.30;;;;;;;31.71;22.78;100834.13;5062094;28;20044;-80
2022/06/17 13:35:55;;;;;;;3.40;2.38;;;;;;;31.97;23.22;100818.84;5058824;28;20072;-81
2022/06/17 13:38:29;;;;;;;1.50;1.20;;;;;;;32.11;22.82;100816.09;5059675;28;20061;-80
2022/06/17 13:41:20;;;;;;;1.88;1.30;;;;;;;31.83;22.33;100815.22;5059764;28;20072;-85
2022/06/17 13:44:00;;;;;;;1.70;1.30;;;;;;;31.43;22.05;100809.25;5059083;28;20033;-77
2022/06/17 13:46:45;;;;;;;4.25;1.30;;;;;;;31.17;22.36;100810.69;5053828;28;20048;-77
2022/06/17 13:49:31;;;;;;;1.58;1.00;;;;;;;31.52;23.55;100809.38;5054257;28;20082;-78
2022/06/17 13:52:15;;;;;;;1.95;1.13;;;;;;;31.56;24.48;100804.88;5054487;28;20037;-77
2022/06/17 13:55:00;;;;;;;2.15;1.35;;;;;;;31.20;22.89;100796.34;5054298;28;20029;-76
2022/06/17 13:57:43;;;;;;;1.90;1.25;;;;;;;31.38;24.08;100803.00;5053947;28;20118;-77
2022/06/17 14:00:20;;;;;;;1.88;1.15;;;;;;;31.17;23.63;100802.44;5055285;28;20033;-77
2022/06/17 14:02:57;;;;;;;4.97;1.35;;;;;;;31.22;24.21;100794.13;5054827;28;20115;-77
2022/06/17 14:05:36;;;;;;;1.70;1.40;;;;;;;30.99;25.25;100782.09;5054951;28;20044;-77
2022/06/17 14:08:06;;;;;;;2.22;1.20;;;;;;;31.17;24.50;100774.91;5054089;28;20386;-76
2022/06/17 14:10:56;;;;;;;2.65;1.00;;;;;;;31.18;24.70;100777.41;5056053;28;20037;-77
2022/06/17 14:13:33;;;;;;;2.08;1.02;;;;;;;30.96;24.28;100771.66;5057445;28;20111;-77
2022/06/17 14:16:01;;;;;;;;;;;;;;;31.08;24.85;100772.84;5059959;28;20048;-77
2022/06/17 14:18:36;;;;;;;2.13;1.60;;;;;;;30.80;24.49;100769.13;5058056;28;20399;-77
2022/06/17 14:21:09;;;;;;;2.67;1.23;;;;;;;30.90;25.06;100775.59;5059293;28;20482;-77
2022/06/17 14:23:41;;;;;;;2.33;1.20;;;;;;;31.14;25.16;100781.03;5054924;28;20063;-77
2022/06/17 14:26:08;;;;;;;1.88;1.33;;;;;;;30.99;24.75;100782.91;5053416;28;20376;-78
2022/06/17 14:28:46;;;;;;;1.70;1.20;;;;;;;30.76;25.30;100787.31;5055397;28;20035;-78
2022/06/17 14:31:17;;;;;;;2.33;1.52;;;;;;;30.96;25.48;100796.41;5055032;28;20510;-78
2022/06/17 14:34:25;;;;;;;2.30;2.08;;;;;;;30.63;25.26;100795.44;5054509;28;20029;-78
2022/06/17 14:36:54;;;;;;;4.97;2.97;;;;;;;30.84;25.81;100805.09;5052773;28;20082;-78
2022/06/17 14:39:42;;;;;;;2.28;1.42;;;;;;;30.77;25.55;100799.94;5053496;28;20036;-78
2022/06/17 14:42:14;;;;;;;2.28;1.77;;;;;;;30.88;27.13;100811.66;5053797;28;20033;-77
2022/06/17 14:44:42;;;;;;;1.92;1.30;;;;;;;30.54;25.21;100811.78;5052535;28;20431;-77
2022/06/17 14:47:29;;;;;;;2.67;1.52;;;;;;;30.80;26.04;100815.06;5053895;28;20036;-77
2022/06/17 14:50:16;;;;;;;2.80;1.95;;;;;;;30.73;25.40;100815.41;5053395;28;20048;-77
2022/06/17 14:52:46;;;;;;;1.50;1.17;;;;;;;30.61;24.99;100820.47;5055232;28;20033;-77
2022/06/17 14:56:16;;;;;;;2.50;1.80;;;;;;;30.70;25.80;100812.41;5054655;28;20166;-78
2022/06/17 14:58:55;;;;;;;2.33;1.13;;;;;;;30.67;25.62;100811.09;5006673;28;20053;-77
2022/06/17 15:01:29;;;;;;;2.00;1.80;;;;;;;30.76;26.03;100805.75;5048203;28;20075;-77
2022/06/17 15:04:04;;;;;;;1.88;1.67;;;;;;;30.71;26.08;100801.16;5053626;28;20037;-79
2022/06/17 15:06:37;;;;;;;2.33;1.45;;;;;;;30.58;25.15;100801.81;5058674;28;20037;-78
2022/06/17 15:09:03;;;;;;;1.60;1.50;;;;;;;30.32;25.24;100803.22;5058110;28;20091;-78
2022/06/17 15:11:31;;;;;;;3.85;2.10;;;;;;;30.17;25.63;100794.03;5054513;28;20041;-78
2022/06/17 15:14:17;;;;;;;3.75;1.45;;;;;;;30.14;25.32;100791.06;5054356;28;20037;-76
2022/06/17 15:16:52;;;;;;;2.88;1.58;;;;;;;30.23;26.03;100792.06;5052458;28;20108;-77
2022/06/17 15:19:26;;;;;;;3.20;2.03;;;;;;;30.32;26.04;100794.97;5052323;28;20037;-76
2022/06/17 15:22:03;;;;;;;1.88;1.40;;;;;;;30.25;26.56;100798.06;5054589;28;20071;-76
2022/06/17 15:24:31;;;;;;;1.77;1.20;;;;;;;30.13;26.17;100794.94;5054137;28;20045;-76
2022/06/17 15:27:22;;;;;;;4.90;1.80;;;;;;;30.21;26.41;100786.84;5055467;28;20086;-76
2022/06/17 15:30:01;;;;;;;2.55;1.85;;;;;;;30.17;26.00;100785.78;5053229;28;20052;-77
2022/06/17 15:32:27;;;;;;;5.03;2.67;;;;;;;30.20;25.29;100781.66;5051636;28;20043;-77
2022/06/17 15:34:53;;;;;;;4.85;1.63;;;;;;;30.16;26.70;100777.84;5053180;28;20028;-76
2022/06/17 15:37:28;;;;;;;2.00;1.43;;;;;;;30.20;26.28;100774.25;5037830;28;20048;-76
2022/06/17 15:40:08;;;;;;;3.40;1.40;;;;;;;30.20;25.87;100770.69;5050709;28;20271;-77
2022/06/17 15:42:33;;;;;;;4.10;1.40;;;;;;;30.05;25.93;100762.56;5050387;28;20059;-77
2022/06/17 15:45:12;;;;;;;2.95;1.30;;;;;;;30.07;25.59;100757.59;5051142;28;20432;-77
2022/06/17 15:47:52;;;;;;;1.73;1.27;;;;;;;30.12;26.33;100760.31;5052139;28;20572;-78
2022/06/17 15:50:18;;;;;;;1.75;1.23;;;;;;;30.02;25.69;100758.47;5051271;28;20047;-77
2022/06/17 15:52:44;;;;;;;5.05;1.88;;;;;;;30.04;26.07;100758.16;5051454;28;20029;-78
2022/06/17 15:55:09;;;;;;;2.45;1.20;;;;;;;30.07;26.60;100761.16;5050589;28;20059;-79
2022/06/17 15:57:52;;;;;;;1.58;1.40;;;;;;;29.88;25.75;100754.78;5052080;28;20108;-78
2022/06/17 16:00:26;;;;;;;1.27;1.17;;;;;;;29.80;26.15;100749.88;5052540;28;20041;-79
2022/06/17 16:02:55;;;;;;;4.03;1.30;;;;;;;29.89;26.74;100757.22;5051684;28;20044;-76
2022/06/17 16:05:28;;;;;;;2.25;1.33;;;;;;;29.90;29.17;100753.38;5051333;28;20076;-75
2022/06/17 16:08:03;;;;;;;2.38;1.30;;;;;;;29.93;29.38;100757.44;5051409;28;20071;-75
2022/06/17 16:10:42;;;;;;;3.17;1.17;;;;;;;29.77;26.50;100751.28;5051310;28;20448;-73
2022/06/17 16:13:32;;;;;;;2.83;1.63;;;;;;;29.71;32.12;100760.69;5051145;28;20552;-78
2022/06/17 16:16:08;;;;;;;3.63;1.50;;;;;;;29.62;30.03;100752.25;5053299;28;20037;-78
2022/06/17 16:18:46;;;;;;;1.45;1.20;;;;;;;29.59;26.79;100752.00;5039014;28;20118;-78
2022/06/17 16:21:33;;;;;;;1.20;1.10;;;;;;;29.64;27.80;100760.19;5059125;28;20094;-78
2022/06/17 16:24:12;;;;;;;1.80;1.40;;;;;;;29.64;26.50;100752.78;5054294;28;20135;-79
2022/06/17 16:26:52;;;;;;;2.28;1.35;;;;;;;29.64;27.29;100749.22;5057681;28;20036;-82
2022/06/17 16:29:23;;;;;;;1.55;1.35;;;;;;;29.58;26.94;100742.97;5055673;28;20040;-79
2022/06/17 16:32:04;;;;;;;1.83;1.25;;;;;;;29.63;27.43;100742.91;5057944;28;20071;-80
2022/06/17 16:34:37;;;;;;;2.67;1.30;;;;;;;29.60;27.61;100738.00;5059731;28;20103;-80
2022/06/17 16:37:03;;;;;;;1.33;1.23;;;;;;;29.67;28.76;100743.19;5062847;28;20067;-81
2022/06/17 16:39:31;;;;;;;3.63;1.80;;;;;;;29.67;28.37;100734.94;5063023;28;20484;-79
2022/06/17 16:45:21;;;;;;;1.98;1.33;;;;;;;29.66;28.14;100739.59;5056318;28;20047;-82